Time;durP1;ratioP1;P1;durP2;ratioP2;P2;SDS_P1;SDS_P2;PMS_P1;PMS_P2;Temp;Humidity;BMP_temperature;BMP_pressure;BME280_temperature;BME280_humidity;BME280_pressure;Samples;Min_cycle;Max_cycle;Signal;HPM_P1;HPM_P2
2024/01/21 00:00:59;;;;;;;14.80;9.40;;;0.30;99.90;;;;;;4865702;29;20650;-46
2024/01/21 00:03:24;;;;;;;14.68;8.90;;;0.30;99.90;;;;;;4866038;29;20420;-45
2024/01/21 00:05:50;;;;;;;18.25;8.50;;;0.40;99.90;;;;;;4868640;29;20168;-47
2024/01/21 00:08:15;;;;;;;15.55;9.82;;;0.40;99.90;;;;;;4867729;29;20064;-47
2024/01/21 00:10:41;;;;;;;13.48;9.30;;;0.40;99.90;;;;;;4868290;29;20045;-47
2024/01/21 00:13:06;;;;;;;12.68;8.32;;;0.40;99.90;;;;;;4873056;29;20100;-47
2024/01/21 00:15:32;;;;;;;13.10;7.80;;;0.30;99.90;;;;;;4866396;29;20045;-48
2024/01/21 00:17:58;;;;;;;11.75;7.72;;;0.30;99.90;;;;;;4866931;29;20248;-47
2024/01/21 00:20:23;;;;;;;13.60;8.07;;;0.30;99.90;;;;;;4869522;29;20049;-46
2024/01/21 00:22:49;;;;;;;11.52;7.20;;;0.20;99.90;;;;;;4866225;29;20465;-48
2024/01/21 00:25:14;;;;;;;15.13;8.18;;;0.20;99.90;;;;;;4853033;29;20127;-45
2024/01/21 00:27:40;;;;;;;11.20;7.68;;;0.20;99.90;;;;;;4865577;29;20037;-46
2024/01/21 00:30:06;;;;;;;10.75;6.80;;;0.20;99.90;;;;;;4866690;29;20407;-46
2024/01/21 00:32:32;;;;;;;10.18;6.88;;;0.20;99.90;;;;;;4866534;29;20073;-47
2024/01/21 00:34:57;;;;;;;11.48;7.10;;;0.20;99.90;;;;;;4866463;29;20187;-46
2024/01/21 00:37:23;;;;;;;11.73;7.53;;;0.20;99.90;;;;;;4850301;29;20053;-46
2024/01/21 00:39:48;;;;;;;9.85;6.82;;;0.20;99.90;;;;;;4867964;29;20053;-46
2024/01/21 00:42:14;;;;;;;11.13;6.97;;;0.20;99.90;;;;;;4853570;29;20040;-46
2024/01/21 00:44:40;;;;;;;10.73;7.22;;;0.20;99.90;;;;;;4867015;29;20064;-45
2024/01/21 00:47:06;;;;;;;12.70;6.20;;;0.20;99.90;;;;;;4871437;29;20084;-45
2024/01/21 00:49:32;;;;;;;10.18;6.43;;;0.20;99.90;;;;;;4872189;29;20041;-44
2024/01/21 00:51:58;;;;;;;10.18;6.50;;;0.20;99.90;;;;;;4870833;29;20576;-46
2024/01/21 00:54:24;;;;;;;10.02;6.55;;;0.30;99.90;;;;;;4865913;29;20053;-45
2024/01/21 00:56:49;;;;;;;9.73;5.88;;;0.30;99.90;;;;;;4852024;29;20052;-46
2024/01/21 00:59:15;;;;;;;11.27;6.32;;;0.30;99.90;;;;;;4867906;29;20104;-45
2024/01/21 01:01:41;;;;;;;8.35;6.03;;;0.30;99.90;;;;;;4873501;29;20480;-46
2024/01/21 01:04:07;;;;;;;8.75;5.70;;;0.40;99.90;;;;;;4873906;29;20120;-47
2024/01/21 01:06:35;;;;;;;9.35;5.43;;;0.40;99.90;;;;;;4866812;29;20049;-45
2024/01/21 01:09:01;;;;;;;7.53;5.30;;;0.40;99.90;;;;;;4868679;29;20037;-45
2024/01/21 01:11:27;;;;;;;7.85;5.07;;;0.50;99.90;;;;;;4867399;29;20846;-45
2024/01/21 01:13:53;;;;;;;6.35;4.88;;;0.50;99.90;;;;;;4867663;29;20124;-45
2024/01/21 01:16:18;;;;;;;7.82;4.88;;;0.60;99.90;;;;;;4868283;29;20496;-45
2024/01/21 01:18:44;;;;;;;8.20;5.13;;;0.60;99.90;;;;;;4871002;29;21938;-45
2024/01/21 01:21:10;;;;;;;7.15;4.80;;;0.60;99.90;;;;;;4866675;29;20602;-47
2024/01/21 01:23:36;;;;;;;6.22;4.40;;;0.60;99.90;;;;;;4866661;29;20053;-45
2024/01/21 01:26:01;;;;;;;6.43;4.60;;;0.60;99.90;;;;;;4865508;29;20051;-45
2024/01/21 01:28:27;;;;;;;5.38;3.72;;;0.70;99.90;;;;;;4868750;29;20408;-45
2024/01/21 01:30:53;;;;;;;7.50;4.63;;;0.70;99.90;;;;;;4869118;29;20045;-44
2024/01/21 01:33:18;;;;;;;7.28;4.10;;;0.80;99.90;;;;;;4854804;29;20475;-45
2024/01/21 01:35:44;;;;;;;6.57;4.00;;;0.80;99.90;;;;;;4871869;29;20195;-45
2024/01/21 01:38:12;;;;;;;7.25;3.97;;;0.90;99.90;;;;;;4873007;29;20400;-46
2024/01/21 01:40:38;;;;;;;5.82;4.00;;;0.80;99.90;;;;;;4870128;29;20045;-45
2024/01/21 01:43:04;;;;;;;5.18;3.30;;;0.90;99.90;;;;;;4874243;29;20037;-46
2024/01/21 01:45:30;;;;;;;4.88;3.80;;;0.90;99.90;;;;;;4872296;29;20063;-45
2024/01/21 01:47:57;;;;;;;4.90;3.67;;;1.00;99.90;;;;;;4871424;29;20057;-45
2024/01/21 01:50:23;;;;;;;4.32;3.33;;;1.00;99.90;;;;;;4874629;29;20045;-45
2024/01/21 01:52:50;;;;;;;4.00;3.25;;;1.00;99.90;;;;;;4876557;29;20048;-45
2024/01/21 01:55:15;;;;;;;4.80;3.10;;;1.10;99.90;;;;;;4873515;29;20053;-46
2024/01/21 01:57:42;;;;;;;3.60;2.90;;;1.00;99.90;;;;;;4872535;29;20048;-45
2024/01/21 02:00:08;;;;;;;3.05;2.70;;;1.10;99.90;;;;;;4871620;29;20063;-45
2024/01/21 02:02:36;;;;;;;4.15;3.15;;;1.20;99.90;;;;;;4868106;29;20045;-45
2024/01/21 02:05:04;;;;;;;5.38;3.08;;;1.20;99.90;;;;;;4869032;29;20057;-46
2024/01/21 02:07:31;;;;;;;4.03;3.05;;;1.20;99.90;;;;;;4869250;29;20082;-45
2024/01/21 02:09:56;;;;;;;4.10;2.90;;;1.20;99.90;;;;;;4874301;29;20504;-45
2024/01/21 02:12:22;;;;;;;4.75;2.47;;;1.20;99.90;;;;;;4870703;29;20097;-47
2024/01/21 02:14:48;;;;;;;5.00;3.03;;;1.20;99.90;;;;;;4872607;29;20049;-49
2024/01/21 02:17:13;;;;;;;3.05;2.35;;;1.20;99.90;;;;;;4874401;29;20053;-45
2024/01/21 02:19:39;;;;;;;4.00;2.55;;;1.20;99.90;;;;;;4871555;29;20496;-45
2024/01/21 02:22:05;;;;;;;4.45;2.40;;;1.30;99.90;;;;;;4869914;29;20048;-45
2024/01/21 02:24:31;;;;;;;2.53;2.30;;;1.30;99.90;;;;;;4870517;29;20073;-46
2024/01/21 02:26:57;;;;;;;3.08;2.60;;;1.30;99.90;;;;;;4852763;29;20030;-46
2024/01/21 02:29:23;;;;;;;3.20;2.33;;;1.30;99.90;;;;;;4869268;29;20118;-45
2024/01/21 02:31:52;;;;;;;3.92;2.40;;;1.30;99.90;;;;;;4874877;29;20064;-45
2024/01/21 02:34:19;;;;;;;3.25;2.13;;;1.30;99.90;;;;;;4870951;29;20124;-45
2024/01/21 02:36:45;;;;;;;3.58;2.17;;;1.30;99.90;;;;;;4856689;29;20037;-48
2024/01/21 02:39:11;;;;;;;4.07;2.60;;;1.30;99.90;;;;;;4866721;29;20041;-46
2024/01/21 02:41:36;;;;;;;3.42;2.38;;;1.30;99.90;;;;;;4864984;29;20123;-44
2024/01/21 02:44:02;;;;;;;3.72;2.00;;;1.30;99.90;;;;;;4868671;29;20048;-45
2024/01/21 02:46:28;;;;;;;4.43;2.30;;;1.40;99.90;;;;;;4850850;29;20052;-46
2024/01/21 02:48:53;;;;;;;4.45;2.50;;;1.30;99.90;;;;;;4850464;29;20045;-45
2024/01/21 02:51:19;;;;;;;3.20;2.28;;;1.30;99.90;;;;;;4869269;29;20040;-45
2024/01/21 02:53:44;;;;;;;3.63;2.28;;;1.30;99.90;;;;;;4871352;29;20073;-45
2024/01/21 02:56:21;;;;;;;3.60;2.20;;;1.30;99.90;;;;;;4871396;29;20475;-45
2024/01/21 02:58:46;;;;;;;5.78;2.08;;;1.30;99.90;;;;;;4870018;29;20085;-44
2024/01/21 03:01:12;;;;;;;4.13;2.60;;;1.30;99.90;;;;;;4851714;29;20141;-45
2024/01/21 03:03:38;;;;;;;2.83;2.03;;;1.40;99.90;;;;;;4869458;29;20045;-45
2024/01/21 03:06:04;;;;;;;3.78;2.30;;;1.40;99.90;;;;;;4868433;29;20259;-46
2024/01/21 03:08:29;;;;;;;3.75;2.30;;;1.30;99.90;;;;;;4869206;29;20067;-45
2024/01/21 03:10:55;;;;;;;2.70;2.05;;;1.40;99.90;;;;;;4867211;29;20071;-45
2024/01/21 03:13:20;;;;;;;3.05;2.25;;;1.40;99.90;;;;;;4867595;29;20053;-45
2024/01/21 03:15:46;;;;;;;2.67;1.80;;;1.50;99.90;;;;;;4876836;29;21135;-46
2024/01/21 03:18:11;;;;;;;3.58;2.10;;;1.50;99.90;;;;;;4875111;29;20049;-46
2024/01/21 03:20:37;;;;;;;2.80;2.03;;;1.50;99.90;;;;;;4867341;29;20051;-45
2024/01/21 03:23:03;;;;;;;5.72;3.20;;;1.40;99.90;;;;;;4867106;29;20477;-45
2024/01/21 03:25:28;;;;;;;3.42;2.30;;;1.30;99.90;;;;;;4866929;29;20044;-45
2024/01/21 03:27:54;;;;;;;4.90;2.30;;;1.40;99.90;;;;;;4868882;29;20628;-47
2024/01/21 03:30:20;;;;;;;4.03;2.00;;;1.40;99.50;;;;;;4866011;29;20072;-44
2024/01/21 03:32:45;;;;;;;3.55;2.00;;;1.40;99.90;;;;;;4866867;29;20404;-44
2024/01/21 03:35:11;;;;;;;2.80;2.15;;;1.40;99.90;;;;;;4868147;29;20124;-44
2024/01/21 03:37:38;;;;;;;2.85;2.08;;;1.40;99.90;;;;;;4870203;29;20569;-44
2024/01/21 03:40:05;;;;;;;4.03;2.03;;;1.40;99.40;;;;;;4870164;29;20060;-45
2024/01/21 03:42:30;;;;;;;2.50;2.00;;;1.30;99.40;;;;;;4871969;29;20088;-48
2024/01/21 03:44:56;;;;;;;3.15;2.10;;;1.30;99.70;;;;;;4867782;29;20127;-45
2024/01/21 03:47:22;;;;;;;2.53;1.90;;;1.30;99.60;;;;;;4868736;29;20045;-46
2024/01/21 03:49:47;;;;;;;4.53;2.03;;;1.30;99.90;;;;;;4870403;29;20404;-45
2024/01/21 03:52:13;;;;;;;3.97;2.35;;;1.20;99.90;;;;;;4873025;29;20053;-45
2024/01/21 03:54:38;;;;;;;3.17;2.03;;;1.20;99.90;;;;;;4865947;29;20045;-46
2024/01/21 03:57:04;;;;;;;2.80;1.83;;;1.10;99.90;;;;;;4868397;29;20188;-45
2024/01/21 03:59:30;;;;;;;3.85;2.22;;;1.10;99.90;;;;;;4862897;29;20068;-45
2024/01/21 04:01:55;;;;;;;2.40;1.80;;;1.20;99.90;;;;;;4859173;29;20061;-45
2024/01/21 04:04:21;;;;;;;6.13;2.08;;;1.20;99.90;;;;;;4871664;29;20485;-45
2024/01/21 04:06:46;;;;;;;2.35;1.70;;;1.30;99.40;;;;;;4872146;29;20181;-45
2024/01/21 04:09:13;;;;;;;3.33;1.85;;;1.30;98.00;;;;;;4869571;29;20108;-46
2024/01/21 04:11:42;;;;;;;3.20;1.58;;;1.40;99.70;;;;;;4874519;29;21317;-46
2024/01/21 04:14:07;;;;;;;2.60;1.70;;;1.40;98.60;;;;;;4870210;29;20075;-45
2024/01/21 04:16:33;;;;;;;2.78;1.90;;;1.40;99.70;;;;;;4872355;29;20135;-46
2024/01/21 04:18:58;;;;;;;2.50;1.77;;;1.50;99.90;;;;;;4868288;29;20049;-46
2024/01/21 04:21:24;;;;;;;2.40;1.90;;;1.50;99.90;;;;;;4871108;29;22014;-47
2024/01/21 04:23:49;;;;;;;1.85;1.60;;;1.60;99.80;;;;;;4872688;29;20053;-45
2024/01/21 04:26:15;;;;;;;2.40;1.52;;;1.60;99.40;;;;;;4872346;29;20064;-45
2024/01/21 04:28:41;;;;;;;2.97;1.80;;;1.70;99.40;;;;;;4872643;29;20077;-45
2024/01/21 04:31:06;;;;;;;3.50;1.90;;;1.70;98.00;;;;;;4869306;29;20044;-45
2024/01/21 04:33:32;;;;;;;3.42;1.90;;;1.70;99.70;;;;;;4875247;29;20041;-45
2024/01/21 04:35:58;;;;;;;2.03;1.77;;;1.80;98.70;;;;;;4875672;29;20378;-45
2024/01/21 04:38:25;;;;;;;3.55;2.10;;;1.80;97.80;;;;;;4870754;29;20057;-45
2024/01/21 04:40:52;;;;;;;3.72;1.77;;;1.80;98.40;;;;;;4868769;29;20091;-45
2024/01/21 04:43:18;;;;;;;2.28;1.60;;;1.80;99.60;;;;;;4873479;29;20049;-45
2024/01/21 04:45:43;;;;;;;3.42;1.70;;;1.80;99.80;;;;;;4855243;29;20047;-45
2024/01/21 04:48:09;;;;;;;4.22;1.83;;;1.80;98.70;;;;;;4870044;29;20045;-48
2024/01/21 04:50:34;;;;;;;3.20;2.15;;;1.80;99.90;;;;;;4868352;29;20141;-47
2024/01/21 04:53:00;;;;;;;3.40;1.90;;;1.80;98.30;;;;;;4868394;29;20144;-45
2024/01/21 04:55:26;;;;;;;2.78;1.95;;;1.80;98.30;;;;;;4870452;29;20132;-45
2024/01/21 04:57:51;;;;;;;3.67;1.80;;;1.80;99.10;;;;;;4872515;29;20049;-45
2024/01/21 05:00:17;;;;;;;2.28;1.77;;;1.70;98.20;;;;;;4868175;29;20093;-46
2024/01/21 05:02:43;;;;;;;2.33;1.67;;;1.70;98.80;;;;;;4875836;29;21809;-45
2024/01/21 05:05:08;;;;;;;3.40;1.98;;;1.70;99.50;;;;;;4849919;29;20055;-46
2024/01/21 05:07:34;;;;;;;2.83;2.28;;;1.60;98.80;;;;;;4871007;29;20377;-44
2024/01/21 05:09:59;;;;;;;3.75;2.22;;;1.70;97.90;;;;;;4867937;29;20384;-44
2024/01/21 05:12:25;;;;;;;2.75;1.98;;;1.70;98.40;;;;;;4870504;29;20045;-45
2024/01/21 05:14:51;;;;;;;5.25;2.45;;;1.70;98.60;;;;;;4871878;29;20063;-46
2024/01/21 05:17:17;;;;;;;3.33;2.38;;;1.70;98.10;;;;;;4872546;29;20041;-44
2024/01/21 05:19:42;;;;;;;3.80;2.22;;;1.60;98.00;;;;;;4876925;29;20056;-47
2024/01/21 05:22:08;;;;;;;2.53;1.77;;;1.60;98.70;;;;;;4873246;29;20052;-45
2024/01/21 05:24:36;;;;;;;3.10;2.17;;;1.60;98.10;;;;;;4872334;29;20412;-47
2024/01/21 05:27:02;;;;;;;3.35;2.45;;;1.60;98.50;;;;;;4873831;29;20067;-46
2024/01/21 05:29:28;;;;;;;4.47;2.60;;;1.60;98.60;;;;;;4872681;29;20049;-45
2024/01/21 05:31:54;;;;;;;2.97;2.40;;;1.60;98.60;;;;;;4867822;29;20144;-47
2024/01/21 05:34:19;;;;;;;4.53;2.42;;;1.60;99.20;;;;;;4870277;29;20496;-45
2024/01/21 05:36:45;;;;;;;3.20;2.20;;;1.60;99.70;;;;;;4872753;29;20068;-44
2024/01/21 05:39:13;;;;;;;4.10;2.70;;;1.60;99.40;;;;;;4858088;29;20049;-46
2024/01/21 05:41:39;;;;;;;;;;;;;;;;;;4867716;29;20076;-45
2024/01/21 05:44:05;;;;;;;4.10;2.35;;;1.50;99.90;;;;;;4873325;29;19962;-45
2024/01/21 05:46:30;;;;;;;3.15;2.60;;;1.60;99.90;;;;;;4866872;29;21772;-47
2024/01/21 05:48:56;;;;;;;4.20;2.70;;;1.60;99.60;;;;;;4867039;29;20053;-45
2024/01/21 05:51:22;;;;;;;4.05;3.00;;;1.60;99.90;;;;;;4852198;29;20420;-45
2024/01/21 05:53:47;;;;;;;4.97;2.97;;;1.60;99.90;;;;;;4869225;29;20192;-47
2024/01/21 05:56:17;;;;;;;3.90;2.83;;;1.70;99.90;;;;;;4871246;29;20120;-45
2024/01/21 05:58:43;;;;;;;4.30;2.85;;;1.70;99.90;;;;;;4868633;29;20127;-45
2024/01/21 06:01:08;;;;;;;5.25;2.75;;;1.70;99.90;;;;;;4874466;29;20164;-45
2024/01/21 06:03:34;;;;;;;5.07;3.22;;;1.80;99.90;;;;;;4869501;29;20124;-44
2024/01/21 06:06:00;;;;;;;4.57;3.30;;;1.80;99.90;;;;;;4876355;29;20065;-45
2024/01/21 06:08:27;;;;;;;8.05;3.15;;;1.80;99.90;;;;;;4869320;29;20055;-44
2024/01/21 06:10:53;;;;;;;6.35;3.22;;;1.80;99.90;;;;;;4867568;29;20152;-45
2024/01/21 06:13:19;;;;;;;6.60;3.50;;;1.80;99.90;;;;;;4871058;29;20088;-44
2024/01/21 06:15:45;;;;;;;4.78;2.90;;;1.80;99.90;;;;;;4870358;29;20457;-44
2024/01/21 06:18:11;;;;;;;5.28;3.83;;;1.90;99.90;;;;;;4869073;29;20556;-46
2024/01/21 06:20:36;;;;;;;4.47;3.28;;;1.90;99.90;;;;;;4868263;29;20041;-44
2024/01/21 06:23:02;;;;;;;6.22;3.78;;;1.80;99.90;;;;;;4872581;29;20041;-44
2024/01/21 06:25:28;;;;;;;6.00;3.80;;;1.90;99.90;;;;;;4872203;29;21528;-45
2024/01/21 06:27:53;;;;;;;4.28;3.60;;;1.90;99.90;;;;;;4867375;29;20609;-45
2024/01/21 06:30:21;;;;;;;4.63;3.80;;;1.90;99.90;;;;;;4872539;29;20192;-44
2024/01/21 06:32:47;;;;;;;6.20;3.83;;;1.90;99.90;;;;;;4870990;29;20041;-48
2024/01/21 06:35:12;;;;;;;7.63;4.07;;;1.90;99.90;;;;;;4870329;29;20099;-46
2024/01/21 06:37:38;;;;;;;5.55;3.80;;;2.00;99.90;;;;;;4870450;29;20055;-46
2024/01/21 06:40:04;;;;;;;6.80;3.67;;;1.90;99.90;;;;;;4868004;29;20053;-44
2024/01/21 06:42:30;;;;;;;6.88;4.15;;;2.00;99.90;;;;;;4851382;29;20080;-45
2024/01/21 06:44:56;;;;;;;10.30;5.18;;;2.00;99.90;;;;;;4868169;29;20568;-45
2024/01/21 06:47:21;;;;;;;9.35;4.35;;;1.90;99.90;;;;;;4869935;29;20037;-44
2024/01/21 06:49:47;;;;;;;8.20;4.68;;;1.90;99.90;;;;;;4871666;29;20043;-44
2024/01/21 06:52:13;;;;;;;5.95;4.32;;;1.90;99.90;;;;;;4869104;29;21571;-44
2024/01/21 06:54:40;;;;;;;7.20;4.45;;;1.90;99.90;;;;;;4872229;29;20140;-45
2024/01/21 06:57:05;;;;;;;6.18;4.35;;;1.90;99.90;;;;;;4871301;29;20104;-44
2024/01/21 06:59:31;;;;;;;8.88;5.55;;;1.90;99.90;;;;;;4869264;29;20457;-44
2024/01/21 07:01:57;;;;;;;6.78;4.50;;;1.80;99.90;;;;;;4850308;29;20055;-43
2024/01/21 07:04:22;;;;;;;7.72;4.97;;;1.80;99.90;;;;;;4874061;29;20033;-45
2024/01/21 07:06:48;;;;;;;7.45;4.90;;;1.80;99.90;;;;;;4851337;29;20412;-45
2024/01/21 07:09:14;;;;;;;6.07;4.90;;;1.80;99.90;;;;;;4866783;29;20062;-45
2024/01/21 07:11:42;;;;;;;7.57;5.25;;;1.80;99.90;;;;;;4866703;29;20048;-45
2024/01/21 07:14:08;;;;;;;7.10;5.18;;;1.80;99.90;;;;;;4871883;29;20378;-45
2024/01/21 07:16:34;;;;;;;8.85;5.55;;;1.80;99.90;;;;;;4865883;29;20124;-48
2024/01/21 07:19:00;;;;;;;8.40;5.38;;;1.70;99.90;;;;;;4865102;29;20060;-46
2024/01/21 07:21:25;;;;;;;8.57;5.60;;;1.80;99.90;;;;;;4851660;29;20362;-45
2024/01/21 07:23:51;;;;;;;6.63;4.75;;;1.80;99.90;;;;;;4867158;29;20045;-44
2024/01/21 07:26:18;;;;;;;12.35;5.75;;;1.80;99.90;;;;;;4869461;29;20404;-46
2024/01/21 07:28:43;;;;;;;8.95;5.47;;;1.80;99.90;;;;;;4866862;29;20131;-45
2024/01/21 07:31:09;;;;;;;7.97;5.55;;;1.70;99.90;;;;;;4864462;29;20397;-46
2024/01/21 07:33:35;;;;;;;7.57;5.45;;;1.70;99.90;;;;;;4867825;29;20045;-46
2024/01/21 07:36:03;;;;;;;7.38;5.80;;;1.70;99.90;;;;;;4874204;29;20033;-46
2024/01/21 07:38:29;;;;;;;7.60;5.53;;;1.70;99.90;;;;;;4870838;29;20061;-46
2024/01/21 07:40:55;;;;;;;7.05;5.72;;;1.70;99.90;;;;;;4871190;29;20121;-47
2024/01/21 07:43:20;;;;;;;7.22;5.78;;;1.80;99.90;;;;;;4866008;29;20037;-45
2024/01/21 07:45:46;;;;;;;9.18;5.88;;;2.00;99.90;;;;;;4871179;29;20091;-45
2024/01/21 07:48:12;;;;;;;9.95;5.70;;;1.80;99.90;;;;;;4868572;29;20041;-46
2024/01/21 07:50:37;;;;;;;7.15;5.82;;;1.80;99.90;;;;;;4851359;29;20060;-46
2024/01/21 07:53:03;;;;;;;7.57;5.75;;;1.90;99.90;;;;;;4865189;29;20084;-45
2024/01/21 07:55:29;;;;;;;11.50;6.10;;;2.00;99.90;;;;;;4870094;29;20112;-47
2024/01/21 07:57:54;;;;;;;8.93;5.32;;;2.00;99.90;;;;;;4869914;29;20464;-45
2024/01/21 08:00:21;;;;;;;8.88;6.03;;;2.00;99.90;;;;;;4865097;29;20507;-45
2024/01/21 08:02:47;;;;;;;6.80;5.80;;;1.80;99.90;;;;;;4867137;29;20048;-46
2024/01/21 08:05:12;;;;;;;9.70;6.50;;;1.80;99.90;;;;;;4869459;29;20041;-46
2024/01/21 08:07:38;;;;;;;7.70;5.70;;;1.70;99.90;;;;;;4868790;29;20049;-47
2024/01/21 08:10:04;;;;;;;7.93;6.20;;;2.00;99.90;;;;;;4872734;29;20660;-47
2024/01/21 08:12:30;;;;;;;8.13;5.53;;;2.00;99.90;;;;;;4866564;29;20073;-46
2024/01/21 08:14:56;;;;;;;7.63;6.07;;;1.80;99.90;;;;;;4864147;29;20037;-46
2024/01/21 08:17:22;;;;;;;8.57;5.68;;;1.80;99.90;;;;;;4854456;29;20056;-47
2024/01/21 08:19:47;;;;;;;9.52;6.25;;;2.00;99.90;;;;;;4868194;29;20396;-46
2024/01/21 08:22:13;;;;;;;8.07;5.40;;;2.10;99.90;;;;;;4867119;29;20113;-46
2024/01/21 08:24:38;;;;;;;9.93;5.90;;;2.20;99.90;;;;;;4863811;29;20053;-48
2024/01/21 08:27:05;;;;;;;7.95;6.07;;;2.20;99.90;;;;;;4864291;29;20128;-45
2024/01/21 08:29:31;;;;;;;8.10;5.60;;;2.00;99.90;;;;;;4866753;29;20033;-47
2024/01/21 08:31:59;;;;;;;8.45;6.07;;;2.00;99.90;;;;;;4864047;29;20048;-46
2024/01/21 08:34:25;;;;;;;8.25;6.30;;;2.10;99.90;;;;;;4847727;29;20056;-46
2024/01/21 08:36:50;;;;;;;8.25;6.20;;;2.10;99.90;;;;;;4866354;29;20049;-46
2024/01/21 08:39:16;;;;;;;9.45;5.90;;;2.40;99.90;;;;;;4864111;29;20049;-45
2024/01/21 08:41:41;;;;;;;10.70;5.65;;;2.20;99.90;;;;;;4864918;29;20049;-45
2024/01/21 08:44:07;;;;;;;7.68;6.18;;;2.60;99.90;;;;;;4865836;29;20071;-45
2024/01/21 08:46:33;;;;;;;7.40;5.55;;;2.30;99.90;;;;;;4875888;29;20072;-46
2024/01/21 08:48:58;;;;;;;7.30;5.53;;;2.50;99.90;;;;;;4877374;29;20076;-46
2024/01/21 08:51:24;;;;;;;9.35;6.07;;;2.30;99.90;;;;;;4864445;29;20057;-46
2024/01/21 08:53:56;;;;;;;10.65;6.82;;;2.30;99.90;;;;;;4877237;29;20072;-46
2024/01/21 08:56:25;;;;;;;9.50;6.35;;;2.20;99.90;;;;;;4879252;29;20053;-47
2024/01/21 08:58:51;;;;;;;8.52;5.95;;;2.30;99.90;;;;;;4878250;29;20117;-47
2024/01/21 09:01:18;;;;;;;9.23;6.22;;;2.20;99.90;;;;;;4869254;29;20095;-46
2024/01/21 09:03:44;;;;;;;9.20;5.90;;;2.20;99.90;;;;;;4876460;29;20073;-46
2024/01/21 09:06:10;;;;;;;9.73;6.45;;;2.30;99.90;;;;;;4880082;29;20065;-45
2024/01/21 09:08:36;;;;;;;10.90;6.40;;;2.30;99.90;;;;;;4881788;29;20060;-46
2024/01/21 09:11:01;;;;;;;8.65;6.00;;;2.20;99.90;;;;;;4880573;29;20036;-46
2024/01/21 09:13:27;;;;;;;9.55;6.00;;;2.30;99.90;;;;;;4878298;29;20059;-45
2024/01/21 09:15:53;;;;;;;12.40;6.15;;;2.30;99.90;;;;;;4885759;29;20049;-45
2024/01/21 09:18:18;;;;;;;8.43;6.28;;;2.40;99.90;;;;;;4889461;29;20044;-46
2024/01/21 09:20:44;;;;;;;8.52;6.30;;;2.50;99.90;;;;;;4883124;29;20124;-46
2024/01/21 09:23:09;;;;;;;9.57;5.93;;;2.50;99.90;;;;;;4897120;29;20165;-47
2024/01/21 09:25:35;;;;;;;8.63;5.82;;;2.60;99.90;;;;;;4886650;29;20408;-49
2024/01/21 09:28:01;;;;;;;7.00;5.45;;;2.60;99.90;;;;;;4876826;29;20044;-46
2024/01/21 09:30:26;;;;;;;6.53;5.40;;;2.60;99.90;;;;;;4879299;29;20052;-45
2024/01/21 09:32:52;;;;;;;8.77;6.00;;;2.70;99.90;;;;;;4879497;29;20388;-46
2024/01/21 09:35:17;;;;;;;8.18;5.95;;;2.70;99.90;;;;;;4880104;29;20137;-45
2024/01/21 09:37:43;;;;;;;7.45;5.93;;;2.70;99.90;;;;;;4889280;29;20052;-45
2024/01/21 09:40:09;;;;;;;8.32;6.32;;;2.70;99.90;;;;;;4893902;29;20124;-45
2024/01/21 09:42:35;;;;;;;9.13;6.93;;;2.80;99.90;;;;;;4870567;29;20127;-46
2024/01/21 09:45:02;;;;;;;7.85;6.28;;;2.80;99.90;;;;;;4861334;29;20088;-45
2024/01/21 09:47:27;;;;;;;9.02;6.60;;;2.80;99.90;;;;;;4875048;29;20503;-45
2024/01/21 09:49:54;;;;;;;9.65;6.53;;;2.80;99.90;;;;;;4868888;29;20052;-45
2024/01/21 09:52:20;;;;;;;8.43;6.20;;;2.80;99.90;;;;;;4864894;29;21123;-46
2024/01/21 09:54:46;;;;;;;7.22;5.78;;;2.80;99.90;;;;;;4861632;29;20114;-46
2024/01/21 09:57:12;;;;;;;9.30;6.15;;;2.90;99.90;;;;;;4875725;29;20404;-45
2024/01/21 09:59:39;;;;;;;8.52;6.03;;;2.90;99.90;;;;;;4878298;29;20049;-46
2024/01/21 10:02:15;;;;;;;6.93;5.78;;;2.90;99.90;;;;;;4875774;29;20131;-45
2024/01/21 10:04:42;;;;;;;8.98;6.65;;;2.90;99.90;;;;;;4879393;29;20041;-45
2024/01/21 10:07:08;;;;;;;9.32;5.72;;;2.90;99.90;;;;;;4875836;29;20056;-45
2024/01/21 10:09:34;;;;;;;8.35;5.78;;;2.90;99.90;;;;;;4861842;29;20052;-46
2024/01/21 10:12:00;;;;;;;8.18;6.28;;;2.90;99.90;;;;;;4876587;29;20064;-44
2024/01/21 10:14:31;;;;;;;7.57;6.03;;;3.00;99.90;;;;;;4860612;29;20059;-43
2024/01/21 10:16:58;;;;;;;7.57;6.22;;;3.10;99.90;;;;;;4857294;29;20059;-44
2024/01/21 10:19:31;;;;;;;8.15;6.30;;;;;;;;;;4861382;29;20053;-44
2024/01/21 10:22:14;;;;;;;8.48;6.15;;;3.10;99.90;;;;;;4877613;29;20052;-44
2024/01/21 10:24:44;;;;;;;7.82;5.97;;;3.10;99.90;;;;;;4878524;29;20093;-44
2024/01/21 10:27:10;;;;;;;9.07;5.68;;;3.20;99.90;;;;;;4884032;29;20492;-44
2024/01/21 10:29:41;;;;;;;8.65;6.00;;;3.20;99.90;;;;;;4877487;29;20041;-46
2024/01/21 10:32:09;;;;;;;7.60;5.85;;;3.20;99.90;;;;;;4876657;29;20041;-45
2024/01/21 10:34:35;;;;;;;7.97;5.97;;;3.30;99.90;;;;;;4877375;29;20041;-45
2024/01/21 10:37:04;;;;;;;7.35;5.78;;;3.30;99.90;;;;;;4877454;29;20041;-45
2024/01/21 10:39:34;;;;;;;7.43;6.03;;;3.30;99.90;;;;;;4878572;29;20084;-44
2024/01/21 10:42:00;;;;;;;7.72;5.47;;;3.40;99.90;;;;;;4876379;29;20049;-44
2024/01/21 10:44:29;;;;;;;8.55;6.35;;;3.40;99.90;;;;;;4877285;29;20064;-44
2024/01/21 10:46:59;;;;;;;8.55;5.88;;;3.40;99.90;;;;;;4877772;29;20045;-44
2024/01/21 10:49:25;;;;;;;7.32;5.53;;;3.40;99.90;;;;;;4875989;29;20136;-45
2024/01/21 10:51:53;;;;;;;10.02;6.93;;;3.40;99.90;;;;;;4875591;29;20128;-45
2024/01/21 10:54:20;;;;;;;6.95;6.10;;;3.40;99.90;;;;;;4879081;29;20100;-44
2024/01/21 10:56:47;;;;;;;7.40;5.90;;;3.40;99.90;;;;;;4878107;29;20060;-44
2024/01/21 10:59:13;;;;;;;10.02;6.43;;;3.50;99.90;;;;;;4877818;29;20469;-44
2024/01/21 11:01:42;;;;;;;8.40;6.28;;;3.50;99.90;;;;;;4877284;29;20052;-47
2024/01/21 11:04:12;;;;;;;8.05;6.18;;;3.50;99.90;;;;;;4878657;29;20374;-45
2024/01/21 11:06:41;;;;;;;8.13;5.93;;;3.60;99.90;;;;;;4891350;29;20052;-44
2024/01/21 11:09:08;;;;;;;7.68;6.15;;;;;;;;;;4878313;29;20041;-46
2024/01/21 11:11:41;;;;;;;8.88;6.63;;;3.60;99.90;;;;;;4877708;29;20460;-45
2024/01/21 11:14:31;;;;;;;7.28;6.00;;;3.60;99.90;;;;;;4877252;29;20052;-45
2024/01/21 11:16:57;;;;;;;7.30;5.90;;;3.60;99.90;;;;;;4877609;29;20045;-44
2024/01/21 11:19:24;;;;;;;7.15;5.70;;;3.60;99.90;;;;;;4877734;29;20508;-46
2024/01/21 11:21:54;;;;;;;9.15;6.32;;;3.60;99.90;;;;;;4877015;29;20060;-45
2024/01/21 11:24:29;;;;;;;7.97;5.82;;;3.60;99.90;;;;;;4877701;29;20455;-44
2024/01/21 11:26:56;;;;;;;8.30;6.32;;;3.60;99.90;;;;;;4876598;29;20069;-44
2024/01/21 11:29:27;;;;;;;8.38;6.60;;;3.50;99.90;;;;;;4861570;29;20053;-45
2024/01/21 11:32:03;;;;;;;8.75;6.80;;;3.50;99.90;;;;;;4864039;29;20129;-47
2024/01/21 11:34:36;;;;;;;7.47;6.28;;;3.40;99.90;;;;;;4877402;29;20048;-44
2024/01/21 11:37:02;;;;;;;6.78;5.82;;;3.40;99.90;;;;;;4876252;29;20037;-45
2024/01/21 11:39:27;;;;;;;9.23;6.70;;;3.40;99.90;;;;;;4876596;29;20651;-44
2024/01/21 11:41:53;;;;;;;8.70;6.38;;;3.40;99.90;;;;;;4876281;29;20048;-44
2024/01/21 11:44:24;;;;;;;8.35;6.57;;;3.40;99.90;;;;;;4876628;29;20131;-45
2024/01/21 11:46:52;;;;;;;9.85;7.07;;;3.40;99.90;;;;;;4876339;29;20165;-44
2024/01/21 11:49:19;;;;;;;7.80;6.57;;;3.50;99.90;;;;;;4874764;29;20034;-44
2024/01/21 11:51:44;;;;;;;8.77;6.75;;;3.50;99.90;;;;;;4876364;29;20079;-44
2024/01/21 11:54:11;;;;;;;7.35;6.45;;;3.50;99.90;;;;;;4858175;29;20510;-44
2024/01/21 11:56:36;;;;;;;9.02;6.47;;;3.60;99.90;;;;;;4874795;29;20057;-44
2024/01/21 11:59:06;;;;;;;7.85;6.53;;;3.60;99.90;;;;;;4876196;29;20101;-44
2024/01/21 12:01:33;;;;;;;9.23;6.40;;;3.60;99.90;;;;;;4875389;29;20431;-44
2024/01/21 12:04:01;;;;;;;9.07;6.72;;;3.50;99.90;;;;;;4874761;29;20761;-46
2024/01/21 12:06:28;;;;;;;8.35;6.88;;;3.50;99.90;;;;;;4875455;29;20064;-46
2024/01/21 12:08:54;;;;;;;6.72;5.25;;;3.60;99.90;;;;;;4876452;29;20041;-45
2024/01/21 12:11:20;;;;;;;8.95;6.18;;;3.60;99.90;;;;;;4875010;29;20115;-44
2024/01/21 12:13:45;;;;;;;7.75;6.22;;;3.60;99.90;;;;;;4877410;29;20496;-45
2024/01/21 12:16:12;;;;;;;10.27;6.65;;;3.70;99.90;;;;;;4880726;29;20037;-44
2024/01/21 12:18:41;;;;;;;6.35;5.75;;;3.70;99.90;;;;;;4877712;29;20052;-44
2024/01/21 12:21:11;;;;;;;7.15;5.82;;;3.70;99.90;;;;;;4880726;29;20041;-45
2024/01/21 12:23:42;;;;;;;7.25;6.03;;;3.70;99.90;;;;;;4882638;29;20053;-44
2024/01/21 12:26:08;;;;;;;7.88;6.82;;;;;;;;;;4879028;29;20481;-45
2024/01/21 12:28:34;;;;;;;8.57;6.40;;;3.70;99.90;;;;;;4876867;29;20045;-45
2024/01/21 12:31:00;;;;;;;8.68;6.43;;;3.70;99.90;;;;;;4876162;29;20109;-45
2024/01/21 12:33:26;;;;;;;11.63;7.25;;;3.80;99.90;;;;;;4881192;29;20045;-46
2024/01/21 12:35:52;;;;;;;7.25;5.97;;;3.80;99.90;;;;;;4881997;29;20037;-43
2024/01/21 12:38:19;;;;;;;9.35;7.20;;;3.80;99.90;;;;;;4880164;29;20140;-44
2024/01/21 12:40:44;;;;;;;8.70;7.00;;;3.80;99.90;;;;;;4880094;29;20045;-44
2024/01/21 12:43:10;;;;;;;9.52;6.32;;;3.90;99.90;;;;;;4880834;29;20048;-45
2024/01/21 12:45:36;;;;;;;9.20;6.72;;;3.90;99.90;;;;;;4878956;29;20072;-47
2024/01/21 12:48:03;;;;;;;7.05;6.07;;;3.90;99.90;;;;;;4861705;29;20085;-45
2024/01/21 12:50:30;;;;;;;8.55;6.90;;;3.90;99.90;;;;;;4880046;29;20041;-46
2024/01/21 12:52:58;;;;;;;9.40;6.82;;;4.00;99.90;;;;;;4877920;29;20053;-44